Terminal Aerodrome Forecast
Issued by NWS Knoxville/Tri Cities, TN

Home | Current Version | Previous Version | Text Only | Print | Product List | Glossary On
Versions: 1 2 3 4 5 6 7 8 9 10 11 12 13 14 15 16 17 18 19 20 21 22 23 24 25 26 27 28 29 30
000
FTUS44 KMRX 241124
TAFTYS
TAF
KTYS 241124Z 2412/2512 21018G30KT P6SM BKN045
     FM241500 23022G35KT P6SM BKN035
     FM250000 24012KT P6SM SCT040
     FM250600 26006KT P6SM FEW040 BKN120=

USA.gov is the U.S. government's official web portal to all federal, state and local government web resources and services.